Observation data for McLean on 05/25/2019      Previous  Date  Next       Current Mesonet Observations  Soil Data  Daily Summary Page  Observations in Plain Language
KMCS 250500Z 16010KT 16/15 A2995 RMK A01 T01610145  RH  094%=      5-min Rain = 0
KMCS 250505Z 16009KT 16/15 A2996 RMK A01 T01620145  RH  094%=      5-min Rain = 0
KMCS 250510Z 16010KT 16/15 A2996 RMK A01 T01610145  RH  094%=      5-min Rain = 0
KMCS 250515Z 16009G14KT 16/15 A2996 RMK A01 T01600145  RH  095%=      5-min Rain = 0
KMCS 250520Z 17010KT 16/15 A2996 RMK A01 T01600145  RH  095%=      5-min Rain = 0
KMCS 250525Z 18010KT 16/15 A2996 RMK A01 T01600145  RH  094%=      5-min Rain = 0
KMCS 250530Z 19008KT 16/15 A2996 RMK A01 T01620145  RH  093%=      5-min Rain = 0
KMCS 250535Z 18008KT 16/14 A2996 RMK A01 T01620144  RH  093%=      5-min Rain = 0
KMCS 250540Z 18008KT 16/14 A2996 RMK A01 T01610144  RH  093%=      5-min Rain = 0
KMCS 250545Z 18008KT 16/14 A2996 RMK A01 T01610144  RH  093%=      5-min Rain = 0
KMCS 250550Z 19008KT 16/14 A2996 RMK A01 T01610144  RH  094%=      5-min Rain = 0
KMCS 250555Z 19008KT 16/14 A2996 RMK A01 T01600144  RH  094%=      5-min Rain = 0
KMCS 250600Z 18008KT 16/14 A2996 RMK A01 T01620144  RH  093%=      5-min Rain = 0
KMCS 250605Z 19008KT 16/14 A2996 RMK A01 T01630144  RH  093%=      5-min Rain = 0
KMCS 250610Z 19008KT 16/14 A2996 RMK A01 T01640144  RH  092%=      5-min Rain = 0
KMCS 250615Z 19009KT 17/14 A2996 RMK A01 T01670143  RH  090%=      5-min Rain = 0
KMCS 250620Z 19009KT 17/14 A2996 RMK A01 T01670143  RH  089%=      5-min Rain = 0
KMCS 250625Z 19009KT 17/14 A2995 RMK A01 T01680144  RH  089%=      5-min Rain = 0
KMCS 250630Z 19009KT 17/14 A2995 RMK A01 T01670144  RH  090%=      5-min Rain = 0
KMCS 250635Z 19008KT 17/15 A2995 RMK A01 T01660145  RH  091%=      5-min Rain = 0
KMCS 250640Z 19009KT 17/14 A2995 RMK A01 T01660144  RH  091%=      5-min Rain = 0
KMCS 250645Z 18010KT 17/14 A2995 RMK A01 T01660144  RH  091%=      5-min Rain = 0
KMCS 250650Z 18010KT 17/14 A2995 RMK A01 T01650144  RH  091%=      5-min Rain = 0
KMCS 250655Z 18011KT 17/15 A2995 RMK A01 T01670145  RH  091%=      5-min Rain = 0
KMCS 250700Z 18011KT 17/15 A2995 RMK A01 T01670146  RH  091%=      5-min Rain = 0
KMCS 250705Z 18011KT 17/15 A2995 RMK A01 T01690147  RH  091%=      5-min Rain = 0
KMCS 250710Z 17011G16KT 17/15 A2994 RMK A01 T01700149  RH  091%=      5-min Rain = 0
KMCS 250715Z 17012G17KT 18/15 A2994 RMK A01 T01750152  RH  091%=      5-min Rain = 0
KMCS 250720Z 17014G19KT 18/16 A2994 RMK A01 T01800155  RH  090%=      5-min Rain = 0
KMCS 250725Z 17013G18KT 18/16 A2994 RMK A01 T01820156  RH  089%=      5-min Rain = 0
KMCS 250730Z 17014KT 18/16 A2994 RMK A01 T01820158  RH  089%=      5-min Rain = 0
KMCS 250735Z 17014G19KT 18/16 A2994 RMK A01 T01840158  RH  089%=      5-min Rain = 0
KMCS 250740Z 17015G22KT 19/16 A2994 RMK A01 T01850159  RH  089%=      5-min Rain = 0
KMCS 250745Z 17014KT 18/16 A2994 RMK A01 T01840158  RH  089%=      5-min Rain = 0
KMCS 250750Z 17015KT 18/16 A2994 RMK A01 T01830158  RH  089%=      5-min Rain = 0
KMCS 250755Z 17015KT 18/16 A2994 RMK A01 T01820157  RH  090%=      5-min Rain = 0
KMCS 250800Z 16013G18KT 18/16 A2994 RMK A01 T01800157  RH  090%=      5-min Rain = 0
KMCS 250805Z 16014G19KT 18/16 A2994 RMK A01 T01790156  RH  090%=      5-min Rain = 0
KMCS 250810Z 16015G20KT 18/16 A2994 RMK A01 T01790156  RH  091%=      5-min Rain = 0
KMCS 250815Z 16014G19KT 18/16 A2994 RMK A01 T01780156  RH  091%=      5-min Rain = 0
KMCS 250820Z 16015G21KT 18/16 A2994 RMK A01 T01780156  RH  091%=      5-min Rain = 0
KMCS 250825Z 16014G20KT 18/16 A2994 RMK A01 T01770156  RH  092%=      5-min Rain = 0
KMCS 250830Z 16015G21KT 18/16 A2993 RMK A01 T01770156  RH  092%=      5-min Rain = 0
KMCS 250835Z 16017G23KT 18/16 A2993 RMK A01 T01770156  RH  092%=      5-min Rain = 0
KMCS 250840Z 16017G23KT 18/16 A2993 RMK A01 T01770156  RH  092%=      5-min Rain = 0
KMCS 250845Z 16016G22KT 18/16 A2993 RMK A01 T01760156  RH  092%=      5-min Rain = 0
KMCS 250850Z 16015KT 17/16 A2993 RMK A01 T01740156  RH  093%=      5-min Rain = 0
KMCS 250855Z 16017G27KT 17/16 A2993 RMK A01 T01740155  RH  093%=      5-min Rain = 0
KMCS 250900Z 16016G21KT 17/16 A2993 RMK A01 T01720155  RH  094%=      5-min Rain = 0
KMCS 250905Z 16015G21KT 17/16 A2994 RMK A01 T01720156  RH  095%=      5-min Rain = 0
KMCS 250910Z 16016G23KT 17/16 A2994 RMK A01 T01720156  RH  095%=      5-min Rain = 0
KMCS 250915Z 16015G21KT 17/16 A2994 RMK A01 T01710156  RH  095%=      5-min Rain = 0
KMCS 250920Z 16015G22KT 17/16 A2993 RMK A01 T01710157  RH  096%=      5-min Rain = 0
KMCS 250925Z 16015G21KT 17/16 A2993 RMK A01 T01700157  RH  096%=      5-min Rain = 0
KMCS 250930Z 16015G25KT 17/16 A2993 RMK A01 T01700158  RH  097%=      5-min Rain = 0
KMCS 250935Z 16017G26KT 17/16 A2993 RMK A01 T01710159  RH  097%=      5-min Rain = 0
KMCS 250940Z 16018G26KT 17/16 A2993 RMK A01 T01720159  RH  097%=      5-min Rain = 0
KMCS 250945Z 16016G23KT 17/16 A2993 RMK A01 T01710159  RH  097%=      5-min Rain = 0
KMCS 250950Z 16016G21KT 17/16 A2994 RMK A01 T01710159  RH  098%=      5-min Rain = 0
KMCS 250955Z 16015G22KT 17/16 A2994 RMK A01 T01700159  RH  098%=      5-min Rain = 0
KMCS 251000Z 16016G23KT 17/16 A2994 RMK A01 T01690159  RH  098%=      5-min Rain = 0
KMCS 251005Z 16015G21KT 17/16 A2994 RMK A01 T01680159  RH  099%=      5-min Rain = 0
KMCS 251010Z 16013G20KT 17/16 A2994 RMK A01 T01670159  RH  099%=      5-min Rain = 0
KMCS 251015Z 16012KT 17/16 A2994 RMK A01 T01670159  RH  099%=      5-min Rain = 0
KMCS 251020Z 16012G19KT 17/16 A2994 RMK A01 T01670159  RH  100%=      5-min Rain = 0
KMCS 251025Z 16013G18KT 17/16 A2994 RMK A01 T01660159  RH  100%=      5-min Rain = 0
KMCS 251030Z 16012KT 17/16 A2995 RMK A01 T01660159  RH  100%=      5-min Rain = 0
KMCS 251035Z 17013G18KT 17/16 A2995 RMK A01 T01650158  RH  100%=      5-min Rain = 0
KMCS 251040Z 16012KT 17/16 A2995 RMK A01 T01650158  RH  100%=      5-min Rain = 0
KMCS 251045Z 17011KT 17/16 A2996 RMK A01 T01650158  RH  100%=      5-min Rain = 0
KMCS 251050Z 17011KT 17/16 A2996 RMK A01 T01650158  RH  100%=      5-min Rain = 0
KMCS 251055Z 17010KT 17/16 A2996 RMK A01 T01650158  RH  100%=      5-min Rain = 0
KMCS 251100Z 17010G15KT 17/16 A2997 RMK A01 T01650158  RH  100%=      5-min Rain = 0
KMCS 251105Z 17009KT 17/16 A2997 RMK A01 T01650158  RH  100%=      5-min Rain = 0
KMCS 251110Z 17010KT 17/16 A2997 RMK A01 T01660158  RH  100%=      5-min Rain = 0
KMCS 251115Z 17009KT 17/16 A2997 RMK A01 T01660159  RH  100%=      5-min Rain = 0
KMCS 251120Z 17011G17KT 17/16 A2996 RMK A01 T01660159  RH  100%=      5-min Rain = 0
KMCS 251125Z 16011KT 17/16 A2996 RMK A01 T01670159  RH  100%=      5-min Rain = 0
KMCS 251130Z 17012KT 17/16 A2996 RMK A01 T01670160  RH  100%=      5-min Rain = 0
KMCS 251135Z 16011KT 17/16 A2996 RMK A01 T01670160  RH  100%=      5-min Rain = 0
KMCS 251140Z 17010KT 17/16 A2997 RMK A01 T01680161  RH  100%=      5-min Rain = 0
KMCS 251145Z 17011KT 17/16 A2997 RMK A01 T01690161  RH  100%=      5-min Rain = 0
KMCS 251150Z 17011KT 17/16 A2997 RMK A01 T01690162  RH  100%=      5-min Rain = 0
KMCS 251155Z 17011KT 17/16 A2997 RMK A01 T01700162  RH  100%=      5-min Rain = 0
KMCS 251200Z 17011G16KT 17/16 A2997 RMK A01 T01710163  RH  100%=      5-min Rain = 0
KMCS 251205Z 16011KT 17/16 A2997 RMK A01 T01710163  RH  100%=      5-min Rain = 0
KMCS 251210Z 16012KT 17/16 A2997 RMK A01 T01720164  RH  100%=      5-min Rain = 0
KMCS 251215Z 16012KT 17/17 A2997 RMK A01 T01720165  RH  100%=      5-min Rain = 0
KMCS 251220Z 17011G16KT 17/17 A2997 RMK A01 T01730166  RH  100%=      5-min Rain = 0
KMCS 251225Z 17011KT 17/17 A2997 RMK A01 T01740166  RH  100%=      5-min Rain = 0
KMCS 251230Z 17012KT 18/17 A2997 RMK A01 T01750167  RH  100%=      5-min Rain = 0
KMCS 251235Z 17013KT 18/17 A2998 RMK A01 T01760168  RH  100%=      5-min Rain = 0
KMCS 251240Z 17014G20KT 18/17 A2998 RMK A01 T01760168  RH  100%=      5-min Rain = 0
KMCS 251245Z 17015KT 18/17 A2998 RMK A01 T01770169  RH  100%=      5-min Rain = 0
KMCS 251250Z 17014KT 18/17 A2998 RMK A01 T01770169  RH  100%=      5-min Rain = 0
KMCS 251255Z 17015KT 18/17 A2998 RMK A01 T01780170  RH  100%=      5-min Rain = 0
KMCS 251300Z 17014G20KT 18/17 A2998 RMK A01 T01780170  RH  100%=      5-min Rain = 0
KMCS 251305Z 17015KT 18/17 A2998 RMK A01 T01790171  RH  100%=      5-min Rain = 0
KMCS 251310Z 17014G20KT 18/17 A2999 RMK A01 T01790171  RH  100%=      5-min Rain = 0
KMCS 251315Z 17014G20KT 18/17 A2999 RMK A01 T01800172  RH  100%=      5-min Rain = 0
KMCS 251320Z 17014KT 18/17 A2999 RMK A01 T01790172  RH  100%=      5-min Rain = 0
KMCS 251325Z 17013G18KT 18/17 A2999 RMK A01 T01800172  RH  100%=      5-min Rain = 0
KMCS 251330Z 17014G19KT 18/17 A2999 RMK A01 T01800172  RH  100%=      5-min Rain = 0
KMCS 251335Z 17015KT 18/17 A2999 RMK A01 T01810173  RH  100%=      5-min Rain = 0
KMCS 251340Z 18014KT 18/17 A2999 RMK A01 T01820174  RH  100%=      5-min Rain = 0
KMCS 251345Z 17015KT 18/17 A2999 RMK A01 T01820174  RH  100%=      5-min Rain = 0
KMCS 251350Z 17015G21KT 18/17 A2999 RMK A01 T01820174  RH  100%=      5-min Rain = 0
KMCS 251355Z 18012G17KT 18/18 A2999 RMK A01 T01830175  RH  100%=      5-min Rain = 0
KMCS 251400Z 18012G17KT 18/18 A2999 RMK A01 T01830175  RH  100%=      5-min Rain = 0
KMCS 251405Z 18013G18KT 18/18 A2999 RMK A01 T01830175  RH  100%=      5-min Rain = 0
KMCS 251410Z 18013G18KT 18/18 A2999 RMK A01 T01830175  RH  100%=      5-min Rain = 0
KMCS 251415Z 18011KT 18/18 A30 RMK A01 T01840175  RH  100%=      5-min Rain = 0
KMCS 251420Z 18010G15KT 18/18 A30 RMK A01 T01840176  RH  100%=      5-min Rain = 0
KMCS 251425Z 18012KT 18/18 A30 RMK A01 T01840176  RH  100%=      5-min Rain = 0
KMCS 251430Z 18012KT 18/18 A30 RMK A01 T01840176  RH  100%=      5-min Rain = 0
KMCS 251435Z 19012G18KT 19/18 A30 RMK A01 T01850176  RH  100%=      5-min Rain = 0
KMCS 251440Z 19014G19KT 19/18 A3001 RMK A01 T01850177  RH  100%=      5-min Rain = 0
KMCS 251445Z 18013G18KT 19/18 A3001 RMK A01 T01850177  RH  100%=      5-min Rain = 0
KMCS 251450Z 18015G21KT 19/18 A3001 RMK A01 T01860178  RH  100%=      5-min Rain = 0
KMCS 251455Z 19013G18KT 19/18 A3001 RMK A01 T01860178  RH  100%=      5-min Rain = 0
KMCS 251500Z 19012KT 19/18 A3001 RMK A01 T01870179  RH  100%=      5-min Rain = 0
KMCS 251505Z 19012G19KT 19/18 A3001 RMK A01 T01880179  RH  100%=      5-min Rain = 0
KMCS 251510Z 19015G21KT 19/18 A3001 RMK A01 T01880180  RH  100%=      5-min Rain = 0
KMCS 251515Z 19014G19KT 19/18 A3001 RMK A01 T01890181  RH  100%=      5-min Rain = 0
KMCS 251520Z 19014G19KT 19/18 A3001 RMK A01 T01890181  RH  100%=      5-min Rain = 0
KMCS 251525Z 19015G21KT 19/18 A3001 RMK A01 T01900181  RH  100%=      5-min Rain = 0
KMCS 251530Z 19016G21KT 19/18 A3001 RMK A01 T01900181  RH  100%=      5-min Rain = 0
KMCS 251535Z 19014G19KT 19/18 A3001 RMK A01 T01900182  RH  100%=      5-min Rain = 0
KMCS 251540Z 19014G20KT 19/18 A3001 RMK A01 T01910182  RH  100%=      5-min Rain = 0
KMCS 251545Z 19015G20KT 19/18 A3001 RMK A01 T01920183  RH  100%=      5-min Rain = 0
KMCS 251550Z 19015KT 19/18 A3001 RMK A01 T01920183  RH  100%=      5-min Rain = 0
KMCS 251555Z 19013KT 19/18 A3001 RMK A01 T01930184  RH  100%=      5-min Rain = 0
KMCS 251600Z 19012G17KT 19/19 A3001 RMK A01 T01940185  RH  100%=      5-min Rain = 0
KMCS 251605Z 19013G18KT 19/19 A3001 RMK A01 T01940185  RH  100%=      5-min Rain = 0
KMCS 251610Z 19014G19KT 19/19 A3001 RMK A01 T01940185  RH  100%=      5-min Rain = 0
KMCS 251615Z 19015KT 20/19 A3001 RMK A01 T01950187  RH  100%=      5-min Rain = 0
KMCS 251620Z 19015G21KT 20/19 A3001 RMK A01 T01970188  RH  100%=      5-min Rain = 0
KMCS 251625Z 19014G19KT 20/19 A3001 RMK A01 T01980189  RH  100%=      5-min Rain = 0
KMCS 251630Z 20014KT 20/19 A3001 RMK A01 T01980190  RH  100%=      5-min Rain = 0
KMCS 251635Z 19013G18KT 20/19 A3001 RMK A01 T01990190  RH  100%=      5-min Rain = 0
KMCS 251640Z 19014KT 20/19 A3001 RMK A01 T01990191  RH  100%=      5-min Rain = 0
KMCS 251645Z 19014G19KT 20/19 A3001 RMK A01 T02000191  RH  100%=      5-min Rain = 0
KMCS 251650Z 19013KT 20/19 A3001 RMK A01 T01990190  RH  100%=      5-min Rain = 0
KMCS 251655Z 19013KT 20/19 A3001 RMK A01 T01990191  RH  100%=      5-min Rain = 0
KMCS 251700Z 19013KT 20/19 A3001 RMK A01 T02000191  RH  100%=      5-min Rain = 0
KMCS 251705Z 19013KT 20/19 A3001 RMK A01 T02020193  RH  100%=      5-min Rain = 0
KMCS 251710Z 18013KT 20/19 A3001 RMK A01 T02030194  RH  100%=      5-min Rain = 0
KMCS 251715Z 18013G18KT 20/20 A3001 RMK A01 T02040195  RH  100%=      5-min Rain = 0
KMCS 251720Z 18010G15KT 21/20 A3001 RMK A01 T02050196  RH  100%=      5-min Rain = 0
KMCS 251725Z 18010KT 21/20 A3001 RMK A01 T02060197  RH  100%=      5-min Rain = 0
KMCS 251730Z 19010KT 21/20 A3001 RMK A01 T02060197  RH  100%=      5-min Rain = 0
KMCS 251735Z 19011KT 21/20 A3001 RMK A01 T02060197  RH  100%=      5-min Rain = 0
KMCS 251740Z 19012KT 21/20 A3001 RMK A01 T02080195  RH  098%=      5-min Rain = 0
KMCS 251745Z 19011G16KT 21/19 A3001 RMK A01 T02120191  RH  093%=      5-min Rain = 0
KMCS 251750Z 19012KT 21/19 A3001 RMK A01 T02120189  RH  092%=      5-min Rain = 0
KMCS 251755Z 18011KT 21/19 A3001 RMK A01 T02120190  RH  092%=      5-min Rain = 0
KMCS 251800Z 18012KT 21/19 A3001 RMK A01 T02130190  RH  092%=      5-min Rain = 0
KMCS 251805Z 18012KT 21/19 A3001 RMK A01 T02140191  RH  092%=      5-min Rain = 0
KMCS 251810Z 18013G18KT 22/19 A3001 RMK A01 T02160191  RH  090%=      5-min Rain = 0
KMCS 251815Z 19013KT 22/19 A30 RMK A01 T02150190  RH  090%=      5-min Rain = 0
KMCS 251820Z 18011KT 22/19 A30 RMK A01 T02150191  RH  091%=      5-min Rain = 0
KMCS 251825Z 17010KT 22/19 A30 RMK A01 T02150191  RH  091%=      5-min Rain = 0
KMCS 251830Z 18010KT 22/19 A30 RMK A01 T02150192  RH  091%=      5-min Rain = 0
KMCS 251835Z 18013KT 22/19 A2999 RMK A01 T02150191  RH  091%=      5-min Rain = 0
KMCS 251840Z 18010KT 22/19 A2999 RMK A01 T02170193  RH  091%=      5-min Rain = 0
KMCS 251845Z 18009KT 22/20 A2999 RMK A01 T02220196  RH  090%=      5-min Rain = 0
KMCS 251850Z 18010KT 22/20 A2999 RMK A01 T02210195  RH  090%=      5-min Rain = 0
KMCS 251855Z 18011KT 22/19 A2999 RMK A01 T02230194  RH  089%=      5-min Rain = 0
KMCS 251900Z 17011G18KT 22/20 A2999 RMK A01 T02240195  RH  089%=      5-min Rain = 0
KMCS 251905Z 17011KT 23/19 A2998 RMK A01 T02250194  RH  088%=      5-min Rain = 0
KMCS 251910Z 17011KT 22/19 A2998 RMK A01 T02240194  RH  088%=      5-min Rain = 0
KMCS 251915Z 16010G16KT 22/20 A2998 RMK A01 T02240195  RH  089%=      5-min Rain = 0
KMCS 251920Z 16011KT 23/20 A2997 RMK A01 T02260196  RH  088%=      5-min Rain = 0
KMCS 251925Z 17014KT 23/20 A2996 RMK A01 T02280196  RH  087%=      5-min Rain = 0
KMCS 251930Z 18013G18KT 23/20 A2996 RMK A01 T02290195  RH  086%=      5-min Rain = 0
KMCS 251935Z 17013G18KT 23/20 A2996 RMK A01 T02290195  RH  086%=      5-min Rain = 0
KMCS 251940Z 17013KT 23/20 A2996 RMK A01 T02280195  RH  086%=      5-min Rain = 0
KMCS 251945Z 17011G16KT 23/20 A2996 RMK A01 T02270195  RH  087%=      5-min Rain = 0
KMCS 251950Z 17012KT 23/20 A2997 RMK A01 T02260195  RH  087%=      5-min Rain = 0
KMCS 251955Z 17011G16KT 23/20 A2997 RMK A01 T02250195  RH  088%=      5-min Rain = 0
KMCS 252000Z 16009G14KT 22/20 A2996 RMK A01 T02240196  RH  089%=      5-min Rain = 0
KMCS 252005Z 16010G15KT 22/20 A2995 RMK A01 T02240196  RH  089%=      5-min Rain = 0
KMCS 252010Z 16013G18KT 22/20 A2996 RMK A01 T02240196  RH  089%=      5-min Rain = 0
KMCS 252015Z 16011KT 22/19 A2996 RMK A01 T02230194  RH  089%=      5-min Rain = 0
KMCS 252020Z 17011G16KT 22/19 A2995 RMK A01 T02220193  RH  089%=      5-min Rain = 0
KMCS 252025Z 16009KT 22/19 A2995 RMK A01 T02220194  RH  089%=      5-min Rain = 0
KMCS 252030Z 16010G15KT 22/19 A2995 RMK A01 T02220194  RH  089%=      5-min Rain = 0
KMCS 252035Z 16010KT 22/19 A2994 RMK A01 T02210194  RH  089%=      5-min Rain = 0
KMCS 252040Z 16010KT 22/19 A2994 RMK A01 T02210194  RH  090%=      5-min Rain = 0
KMCS 252045Z 16010KT 22/20 A2995 RMK A01 T02200195  RH  090%=      5-min Rain = 0
KMCS 252050Z 16010KT 22/20 A2995 RMK A01 T02200195  RH  091%=      5-min Rain = 0
KMCS 252055Z 16008KT 22/20 A2994 RMK A01 T02190195  RH  091%=      5-min Rain = 0
KMCS 252100Z 16008KT 22/20 A2994 RMK A01 T02180195  RH  092%=      5-min Rain = 0
KMCS 252105Z 15008KT 22/20 A2994 RMK A01 T02170195  RH  093%=      5-min Rain = 0
KMCS 252110Z 14008KT 22/20 A2993 RMK A01 T02160195  RH  093%=      5-min Rain = 0
KMCS 252115Z 14007KT 22/20 A2992 RMK A01 T02150195  RH  094%=      5-min Rain = 0
KMCS 252120Z 15006KT 21/20 A2993 RMK A01 T02140195  RH  094%=      5-min Rain = 0
KMCS 252125Z 13005KT 21/20 A2992 RMK A01 T02140196  RH  094%=      5-min Rain = 0
KMCS 252130Z 13006KT 21/20 A2992 RMK A01 T02140195  RH  094%=      5-min Rain = 0
KMCS 252135Z 15005KT 21/20 A2992 RMK A01 T02140195  RH  094%=      5-min Rain = 0
KMCS 252140Z 21004KT 22/20 A2993 RMK A01 T02150195  RH  094%=      5-min Rain = 0.01
KMCS 252145Z 23002KT 21/20 A2992 RMK A01 T02130195  RH  095%=      5-min Rain = 0.12
KMCS 252150Z 18005KT 21/20 A2993 RMK A01 T02120196  RH  096%=      5-min Rain = 0.11
KMCS 252155Z 23015G35KT 21/20 A2996 RMK A01 T02100195  RH  097%=      5-min Rain = 0.26
KMCS 252200Z 25026G39KT 18/17 A2999 RMK A01 T01810168  RH  097%=      5-min Rain = 0.31
KMCS 252205Z 29014G26KT 17/16 A2996 RMK A01 T01660157  RH  099%=      5-min Rain = 0.1
KMCS 252210Z 17010G23KT 17/16 A2993 RMK A01 T01660159  RH  100%=      5-min Rain = 0.15
KMCS 252215Z 13009G14KT 17/16 A2993 RMK A01 T01670159  RH  100%=      5-min Rain = 0.03
KMCS 252220Z 15005KT 17/16 A2995 RMK A01 T01680161  RH  100%=      5-min Rain = 0
KMCS 252225Z 18003KT 17/16 A2994 RMK A01 T01700163  RH  100%=      5-min Rain = 0.01
KMCS 252230Z 31012G19KT 17/16 A2994 RMK A01 T01700163  RH  100%=      5-min Rain = 0
KMCS 252235Z 32012KT 17/16 A2994 RMK A01 T01690161  RH  100%=      5-min Rain = 0
KMCS 252240Z 33012KT 17/16 A2994 RMK A01 T01660159  RH  100%=      5-min Rain = 0
KMCS 252245Z 36006KT 17/16 A2994 RMK A01 T01680160  RH  100%=      5-min Rain = 0
KMCS 252250Z 01006KT 17/16 A2995 RMK A01 T01690161  RH  100%=      5-min Rain = 0
KMCS 252255Z 00007KT 17/16 A2995 RMK A01 T01700163  RH  100%=      5-min Rain = 0
KMCS 252300Z 35007KT 17/16 A2994 RMK A01 T01700163  RH  100%=      5-min Rain = 0
KMCS 252305Z 34009KT 17/16 A2993 RMK A01 T01700163  RH  100%=      5-min Rain = 0
KMCS 252310Z 32012G19KT 17/16 A2994 RMK A01 T01710163  RH  100%=      5-min Rain = 0
KMCS 252315Z 32017KT 17/16 A2994 RMK A01 T01680161  RH  100%=      5-min Rain = 0.04
KMCS 252320Z 32016G21KT 16/16 A2995 RMK A01 T01630156  RH  100%=      5-min Rain = 0.02
KMCS 252325Z 33012KT 16/15 A2996 RMK A01 T01580151  RH  100%=      5-min Rain = 0.06
KMCS 252330Z 35010KT 16/15 A2996 RMK A01 T01570150  RH  100%=      5-min Rain = 0.01
KMCS 252335Z 01008KT 16/15 A2996 RMK A01 T01560149  RH  100%=      5-min Rain = 0.02
KMCS 252340Z 04008KT 16/15 A2993 RMK A01 T01570150  RH  100%=      5-min Rain = 0.01
KMCS 252345Z 05008KT 16/15 A2994 RMK A01 T01560149  RH  100%=      5-min Rain = 0
KMCS 252350Z 06007KT 16/15 A2994 RMK A01 T01560149  RH  100%=      5-min Rain = 0.01
KMCS 252355Z 35009G14KT 16/15 A2995 RMK A01 T01570150  RH  100%=      5-min Rain = 0
KMCS 260000Z 33008KT 16/15 A2996 RMK A01 T01580151  RH  100%=      5-min Rain = 0.01
KMCS 260005Z 34006G12KT 16/15 A2996 RMK A01 T01580151  RH  100%=      5-min Rain = 0.05
KMCS 260010Z 21005KT 16/15 A2995 RMK A01 T01610154  RH  100%=      5-min Rain = 0.08
KMCS 260015Z 11004G9KT 16/15 A2991 RMK A01 T01610154  RH  100%=      5-min Rain = 0.03
KMCS 260020Z 13006KT 17/16 A2992 RMK A01 T01650158  RH  100%=      5-min Rain = 0.01
KMCS 260025Z 23006G12KT 17/16 A2996 RMK A01 T01650158  RH  100%=      5-min Rain = 0.05
KMCS 260030Z 18015G23KT 17/16 A2994 RMK A01 T01650157  RH  100%=      5-min Rain = 0.08
KMCS 260035Z 17016G27KT 17/16 A2992 RMK A01 T01680161  RH  100%=      5-min Rain = 0.02
KMCS 260040Z 18020G29KT 18/17 A2991 RMK A01 T01790168  RH  098%=      5-min Rain = 0.02
KMCS 260045Z 19026G36KT 18/17 A2991 RMK A01 T01780165  RH  097%=      5-min Rain = 0.05
KMCS 260050Z 19022G31KT 17/16 A2993 RMK A01 T01730163  RH  099%=      5-min Rain = 0.06
KMCS 260055Z 16016G25KT 17/17 A2992 RMK A01 T01740165  RH  100%=      5-min Rain = 0.01
KMCS 260100Z 16011G16KT 17/17 A299 RMK A01 T01730165  RH  100%=      5-min Rain = 0.01
KMCS 260105Z 21011G16KT 18/17 A2992 RMK A01 T01750167  RH  100%=      5-min Rain = 0
KMCS 260110Z 20010G16KT 18/17 A2991 RMK A01 T01780170  RH  100%=      5-min Rain = 0
KMCS 260115Z 20013G20KT 18/17 A2992 RMK A01 T01800172  RH  100%=      5-min Rain = 0
KMCS 260120Z 18018G23KT 18/17 A299 RMK A01 T01820174  RH  100%=      5-min Rain = 0
KMCS 260125Z 17020G26KT 18/17 A2986 RMK A01 T01820174  RH  100%=      5-min Rain = 0
KMCS 260130Z 16020G27KT 18/17 A2983 RMK A01 T01810172  RH  099%=      5-min Rain = 0
KMCS 260135Z 16016G22KT 18/17 A2984 RMK A01 T01810171  RH  099%=      5-min Rain = 0
KMCS 260140Z 16013G19KT 18/17 A2985 RMK A01 T01800170  RH  099%=      5-min Rain = 0
KMCS 260145Z 16013G18KT 18/17 A2985 RMK A01 T01800170  RH  099%=      5-min Rain = 0
KMCS 260150Z 16017G22KT 18/17 A2986 RMK A01 T01790169  RH  099%=      5-min Rain = 0
KMCS 260155Z 17017G24KT 18/17 A2987 RMK A01 T01780168  RH  099%=      5-min Rain = 0
KMCS 260200Z 17016G21KT 18/17 A2987 RMK A01 T01770167  RH  099%=      5-min Rain = 0
KMCS 260205Z 17014KT 18/17 A2988 RMK A01 T01770167  RH  098%=      5-min Rain = 0
KMCS 260210Z 17014G19KT 18/17 A2988 RMK A01 T01760166  RH  098%=      5-min Rain = 0
KMCS 260215Z 17014G20KT 18/17 A2988 RMK A01 T01760166  RH  099%=      5-min Rain = 0
KMCS 260220Z 17012G17KT 18/17 A2988 RMK A01 T01760167  RH  099%=      5-min Rain = 0
KMCS 260225Z 18012KT 18/17 A2988 RMK A01 T01760168  RH  100%=      5-min Rain = 0
KMCS 260230Z 18012KT 18/17 A2988 RMK A01 T01760168  RH  100%=      5-min Rain = 0
KMCS 260235Z 18013KT 18/17 A2987 RMK A01 T01760168  RH  100%=      5-min Rain = 0
KMCS 260240Z 18015KT 18/17 A2988 RMK A01 T01760168  RH  100%=      5-min Rain = 0
KMCS 260245Z 19014G19KT 18/17 A2988 RMK A01 T01770169  RH  100%=      5-min Rain = 0
KMCS 260250Z 19013KT 18/17 A2989 RMK A01 T01770168  RH  099%=      5-min Rain = 0
KMCS 260255Z 19012KT 18/17 A299 RMK A01 T01800165  RH  095%=      5-min Rain = 0
KMCS 260300Z 19011KT 18/16 A299 RMK A01 T01810162  RH  093%=      5-min Rain = 0
KMCS 260305Z 19011KT 18/16 A2991 RMK A01 T01830161  RH  091%=      5-min Rain = 0
KMCS 260310Z 18010KT 18/16 A2991 RMK A01 T01830159  RH  090%=      5-min Rain = 0
KMCS 260315Z 18010KT 18/16 A2992 RMK A01 T01830158  RH  089%=      5-min Rain = 0
KMCS 260320Z 18011KT 18/16 A2993 RMK A01 T01830157  RH  088%=      5-min Rain = 0
KMCS 260325Z 18010KT 18/16 A2993 RMK A01 T01820156  RH  089%=      5-min Rain = 0
KMCS 260330Z 18010KT 18/16 A2994 RMK A01 T01830155  RH  088%=      5-min Rain = 0
KMCS 260335Z 18010KT 18/15 A2994 RMK A01 T01840154  RH  087%=      5-min Rain = 0
KMCS 260340Z 18008KT 19/15 A2994 RMK A01 T01880153  RH  084%=      5-min Rain = 0
KMCS 260345Z 17009KT 19/15 A2995 RMK A01 T01890153  RH  083%=      5-min Rain = 0
KMCS 260350Z 17007KT 19/15 A2995 RMK A01 T01910152  RH  082%=      5-min Rain = 0
KMCS 260355Z 17005KT 19/15 A2996 RMK A01 T01920152  RH  081%=      5-min Rain = 0
KMCS 260400Z 14004KT 19/15 A2996 RMK A01 T01930152  RH  080%=      5-min Rain = 0
KMCS 260405Z 13005KT 19/15 A2996 RMK A01 T01920152  RH  081%=      5-min Rain = 0
KMCS 260410Z 09005KT 19/15 A2997 RMK A01 T01880154  RH  084%=      5-min Rain = 0
KMCS 260415Z 06007KT 18/15 A2997 RMK A01 T01760152  RH  090%=      5-min Rain = 0
KMCS 260420Z 08009G21KT 17/15 A2996 RMK A01 T01720154  RH  093%=      5-min Rain = 0
KMCS 260425Z 11013G19KT 18/16 A2996 RMK A01 T01800159  RH  092%=      5-min Rain = 0
KMCS 260430Z 11010KT 19/16 A2996 RMK A01 T01860160  RH  089%=      5-min Rain = 0
KMCS 260435Z 10010G15KT 18/16 A2996 RMK A01 T01800158  RH  091%=      5-min Rain = 0
KMCS 260440Z 11011G17KT 18/16 A2996 RMK A01 T01770157  RH  093%=      5-min Rain = 0
KMCS 260445Z 11011KT 18/16 A2996 RMK A01 T01750156  RH  093%=      5-min Rain = 0
KMCS 260450Z 11010KT 17/16 A2996 RMK A01 T01740156  RH  093%=      5-min Rain = 0
KMCS 260455Z 12010KT 17/16 A2996 RMK A01 T01730155  RH  094%=      5-min Rain = 0

Page generated in 0.02 seconds.